Shiro, Texas
Current Conditions -  °F | °C
As of 1:53 AM on Sunday 26 Oct 2014 (Local Time) from KUTS Reporting Station
Clear Clear  
Wind Chill: 18°   Ceiling: Unl
Heat Index: 18°   Visibility: 10mi
Dew Point: 15°   Wind: 3mph
Humidity: 81%   Direction: 200°SSW
Pressure: 30.07"   Gusts: NA
Location:  30.61°N, 95.89°W
Report Text: KUTS 260653Z AUTO 20003KT 10SM CLR 18/15 A3007 RMK AO2 SLP179 T01830150
Loading
Personal Weather Stations






























Interactive Weather Map
Tropical Storm Tracking
New forecast layout! Learn more

10-Day Weather Forecast

Advertisements
Track Severe Weather on mobile